createdAt,value
2022-09-20T00:09:47.231Z,9.6
2022-09-20T00:19:47.278Z,9.5
2022-09-20T00:29:48.310Z,9.5
2022-09-20T00:39:48.852Z,9.5
2022-09-20T00:49:49.767Z,9.5
2022-09-20T00:59:49.972Z,9.4
2022-09-20T01:09:50.312Z,9.2
2022-09-20T01:19:51.203Z,9.1
2022-09-20T01:29:52.150Z,9.2
2022-09-20T01:39:52.936Z,9.1
2022-09-20T01:49:53.544Z,9.2
2022-09-20T01:59:54.098Z,9.3
2022-09-20T02:09:54.507Z,9.3
2022-09-20T02:49:57.041Z,9.5
2022-09-20T03:09:58.162Z,9.4
2022-09-20T03:29:58.816Z,9.2
2022-09-20T04:20:01.608Z,8.7
2022-09-20T04:30:01.697Z,8.6
2022-09-20T04:40:02.115Z,8.7
2022-09-20T04:50:02.701Z,8.9
2022-09-20T05:00:03.382Z,9.2
2022-09-20T05:10:03.370Z,9.4
2022-09-20T05:20:04.265Z,9.5
2022-09-20T05:30:05.312Z,9.7
2022-09-20T05:40:05.312Z,9.8
2022-09-20T05:50:06.178Z,9.9
2022-09-20T06:00:07.069Z,10
2022-09-20T06:10:07.908Z,10
2022-09-20T06:20:08.749Z,10.1
2022-09-20T06:30:09.127Z,10.3
2022-09-20T06:40:10.125Z,10.4
2022-09-20T06:50:10.633Z,10.5
2022-09-20T07:00:10.793Z,10.7
2022-09-20T07:10:11.712Z,10.6
2022-09-20T07:20:12.496Z,10.6
2022-09-20T07:30:13.140Z,10.8
2022-09-20T07:40:13.270Z,10.9
2022-09-20T07:50:13.370Z,11.1
2022-09-20T08:00:14.207Z,11.2
2022-09-20T08:10:14.785Z,11.4
2022-09-20T08:20:15.669Z,11.5
2022-09-20T08:30:15.843Z,11.5
2022-09-20T08:40:16.892Z,11.8
2022-09-20T08:50:18.054Z,12
2022-09-20T09:00:18.948Z,12
2022-09-20T09:10:19.764Z,12.2
2022-09-20T09:20:20.642Z,12.4
2022-09-20T09:30:21.045Z,12.9
2022-09-20T09:40:21.986Z,12.9
2022-09-20T09:50:22.617Z,13.2
2022-09-20T10:00:23.687Z,13.7
2022-09-20T10:10:24.153Z,13.9
2022-09-20T10:13:02.533Z,13.9
2022-09-20T10:20:33.082Z,13.7
2022-09-20T10:30:33.757Z,14.1
2022-09-20T10:40:34.777Z,14.2
2022-09-20T10:50:35.651Z,14.8
2022-09-20T11:00:36.220Z,14.5
2022-09-20T11:10:36.348Z,14.7
2022-09-20T11:20:37.351Z,14.5
2022-09-20T11:30:37.426Z,14.5
2022-09-20T11:40:38.057Z,14.5
2022-09-20T11:50:38.536Z,14.8
2022-09-20T12:00:38.685Z,14.8
2022-09-20T12:10:39.216Z,14.7
2022-09-20T12:20:39.358Z,15
2022-09-20T12:30:40.067Z,15.9
2022-09-20T12:40:40.478Z,15.6
2022-09-20T12:50:41.370Z,15.2
2022-09-20T13:00:41.768Z,15.2
2022-09-20T13:10:41.941Z,15.1
2022-09-20T13:30:43.966Z,15.2
2022-09-20T13:40:44.086Z,14.9
2022-09-20T13:50:47.228Z,14.8
2022-09-20T14:00:44.752Z,14.8
2022-09-20T14:10:44.867Z,14.8
2022-09-20T14:20:45.481Z,15.2
2022-09-20T14:30:45.824Z,15.2
2022-09-20T14:40:46.249Z,15.2
2022-09-20T14:50:46.592Z,14.8
2022-09-20T15:20:47.483Z,14.7
2022-09-20T15:30:48.509Z,14.6
2022-09-20T15:40:49.047Z,14.6
2022-09-20T15:50:49.248Z,14.8
2022-09-20T16:00:49.958Z,14.8
2022-09-20T16:20:51.034Z,14.3
2022-09-20T16:30:51.845Z,14.2
2022-09-20T16:40:52.185Z,14
2022-09-20T16:50:52.650Z,13.9
2022-09-20T17:00:53.526Z,13.8
2022-09-20T17:10:54.444Z,13.7
2022-09-20T17:20:54.571Z,13.7
2022-09-20T17:30:54.868Z,13.4
2022-09-20T17:40:55.024Z,13.3
2022-09-20T17:50:55.438Z,13.2
2022-09-20T18:00:56.409Z,12.5
2022-09-20T18:10:56.768Z,12.1
2022-09-20T18:20:57.623Z,11.8
2022-09-20T18:30:58.282Z,11.6
2022-09-20T18:40:59.043Z,11.5
2022-09-20T18:50:59.305Z,11.3
2022-09-20T19:00:59.440Z,11
2022-09-20T19:10:59.594Z,10.9
2022-09-20T19:20:59.799Z,10.6
2022-09-20T19:31:00.114Z,10.5
2022-09-20T19:41:00.642Z,10.3
2022-09-20T20:01:02.080Z,10
2022-09-20T20:41:04.123Z,9.6
2022-09-20T21:01:05.714Z,9.2
2022-09-20T21:11:06.664Z,9.2
2022-09-20T21:21:07.668Z,9.1
2022-09-20T21:31:08.602Z,8.9
2022-09-20T21:41:09.008Z,8.8
2022-09-20T21:51:09.296Z,8.6
2022-09-20T22:01:10.113Z,8.6
2022-09-20T22:11:13.494Z,8.5
2022-09-20T22:21:11.137Z,8.3
2022-09-20T22:31:11.261Z,8.2
2022-09-20T22:51:11.945Z,8
